Time;durP1;ratioP1;P1;durP2;ratioP2;P2;SDS_P1;SDS_P2;PMS_P1;PMS_P2;Temp;Humidity;BMP_temperature;BMP_pressure;BME280_temperature;BME280_humidity;BME280_pressure;Samples;Min_cycle;Max_cycle;Signal;HPM_P1;HPM_P2
2021/12/28 00:00:14;;;;;;;46.15;20.60;;;5.00;99.90;;;;;;5032952;28;20488;-81
2021/12/28 00:02:43;;;;;;;27.88;16.25;;;5.00;99.90;;;;;;5017436;28;20503;-81
2021/12/28 00:05:09;;;;;;;29.88;16.40;;;5.10;99.90;;;;;;5033961;28;20046;-80
2021/12/28 00:07:37;;;;;;;24.42;14.93;;;5.10;99.90;;;;;;5016559;28;20045;-80
2021/12/28 00:10:05;;;;;;;32.75;16.77;;;5.10;99.90;;;;;;5033769;28;20041;-80
2021/12/28 00:12:33;;;;;;;32.42;17.40;;;5.10;99.90;;;;;;5035080;28;20053;-80
2021/12/28 00:15:06;;;;;;;32.70;17.08;;;5.30;99.90;;;;;;5050175;28;20037;-81
2021/12/28 00:20:18;;;;;;;25.65;14.40;;;5.40;99.90;;;;;;5033604;28;20150;-80
2021/12/28 00:22:44;;;;;;;43.85;19.05;;;5.40;99.90;;;;;;5034461;28;20049;-80
2021/12/28 00:25:11;;;;;;;29.27;16.13;;;5.50;99.90;;;;;;5050542;28;20465;-80
2021/12/28 00:27:38;;;;;;;32.45;16.85;;;5.30;99.90;;;;;;5050208;28;20046;-81
2021/12/28 00:30:05;;;;;;;26.05;15.10;;;5.50;99.90;;;;;;5033317;28;20150;-81
2021/12/28 00:32:31;;;;;;;34.50;16.30;;;5.50;99.90;;;;;;5050099;28;20401;-81
2021/12/28 00:34:57;;;;;;;42.22;18.58;;;5.60;99.90;;;;;;5034360;28;20041;-81
2021/12/28 00:37:22;;;;;;;40.40;19.27;;;5.60;99.90;;;;;;5033270;28;20484;-80
2021/12/28 00:39:48;;;;;;;38.22;18.50;;;5.60;99.90;;;;;;5034139;28;20493;-80
2021/12/28 00:42:14;;;;;;;28.95;16.30;;;5.70;99.90;;;;;;5017155;28;20131;-81
2021/12/28 00:44:40;;;;;;;35.78;18.05;;;5.70;99.90;;;;;;5033517;28;20124;-80
2021/12/28 00:47:06;;;;;;;51.03;22.20;;;5.70;99.90;;;;;;5034125;28;20496;-81
2021/12/28 00:49:32;;;;;;;38.03;18.88;;;5.80;99.90;;;;;;5033711;28;20096;-81
2021/12/28 00:51:57;;;;;;;42.25;20.88;;;5.80;99.90;;;;;;5051679;28;20378;-80
2021/12/28 00:54:23;;;;;;;39.75;19.10;;;5.60;99.90;;;;;;5054033;28;20119;-80
2021/12/28 00:56:49;;;;;;;41.85;20.33;;;5.70;99.90;;;;;;5037329;28;20056;-80
2021/12/28 00:59:15;;;;;;;57.33;22.45;;;5.80;99.90;;;;;;5054589;28;20037;-80
2021/12/28 01:01:40;;;;;;;29.45;17.55;;;5.80;99.90;;;;;;5020599;28;20092;-80
2021/12/28 01:04:06;;;;;;;54.47;23.17;;;5.90;99.90;;;;;;5054036;28;20225;-80
2021/12/28 01:06:32;;;;;;;49.67;23.40;;;6.00;99.90;;;;;;5054053;28;20060;-80
2021/12/28 01:08:57;;;;;;;35.17;19.15;;;6.10;99.90;;;;;;5020374;28;20052;-80
2021/12/28 01:11:23;;;;;;;67.30;26.33;;;6.10;99.90;;;;;;5036970;28;20053;-80
2021/12/28 01:13:49;;;;;;;90.15;29.40;;;6.10;99.90;;;;;;5037039;28;20054;-81
2021/12/28 01:16:15;;;;;;;37.97;20.65;;;6.10;99.90;;;;;;5053144;28;20492;-81
2021/12/28 01:18:42;;;;;;;32.45;18.55;;;6.10;99.90;;;;;;5035644;28;20081;-81
2021/12/28 01:21:08;;;;;;;60.63;23.48;;;6.20;99.90;;;;;;5035844;28;20049;-80
2021/12/28 01:23:34;;;;;;;93.35;29.02;;;6.20;99.90;;;;;;5036789;28;20057;-80
2021/12/28 01:26:01;;;;;;;67.20;26.75;;;6.10;99.90;;;;;;5037217;28;20140;-80
2021/12/28 01:28:27;;;;;;;89.15;29.95;;;6.10;99.90;;;;;;5053897;28;20477;-80
2021/12/28 01:30:52;;;;;;;103.15;32.25;;;6.10;99.90;;;;;;5020027;28;20140;-80
2021/12/28 01:33:18;;;;;;;113.82;32.42;;;6.10;99.90;;;;;;5036657;28;20140;-80
2021/12/28 01:35:44;;;;;;;52.33;24.25;;;6.20;99.90;;;;;;5020654;28;20044;-81
2021/12/28 01:38:10;;;;;;;48.75;23.98;;;6.30;99.90;;;;;;5036050;28;20560;-81
2021/12/28 01:40:42;;;;;;;57.08;25.50;;;6.30;99.90;;;;;;5053265;28;20083;-80
2021/12/28 01:43:14;;;;;;;101.40;32.95;;;6.30;99.90;;;;;;5053157;28;20046;-81
2021/12/28 01:45:48;;;;;;;73.95;29.60;;;6.40;99.90;;;;;;5036060;28;20053;-81
2021/12/28 01:48:17;;;;;;;72.32;29.52;;;6.40;99.90;;;;;;5036099;28;20060;-81
2021/12/28 01:50:43;;;;;;;127.88;34.25;;;6.40;99.90;;;;;;5036277;28;20045;-81
2021/12/28 01:53:09;;;;;;;60.75;27.92;;;6.50;99.90;;;;;;5052697;28;20053;-81
2021/12/28 01:55:38;;;;;;;123.55;37.10;;;6.60;99.90;;;;;;5052750;28;20401;-81
2021/12/28 01:58:04;;;;;;;52.35;27.60;;;6.60;99.90;;;;;;5035865;28;20053;-81
2021/12/28 02:00:30;;;;;;;58.67;27.85;;;6.60;99.90;;;;;;5052572;28;20142;-81
2021/12/28 02:02:56;;;;;;;66.13;30.88;;;6.60;99.90;;;;;;5035079;28;20041;-80
2021/12/28 02:05:22;;;;;;;84.90;30.52;;;6.60;99.90;;;;;;5019036;28;20059;-80
2021/12/28 02:07:47;;;;;;;371.40;54.60;;;6.60;99.90;;;;;;5034995;28;20096;-81
2021/12/28 02:10:13;;;;;;;251.05;47.85;;;6.70;99.90;;;;;;5035857;28;20049;-81
2021/12/28 02:12:39;;;;;;;93.80;33.83;;;6.80;99.90;;;;;;5020002;28;20052;-81
2021/12/28 02:15:07;;;;;;;66.68;30.55;;;6.80;99.90;;;;;;5002907;28;20485;-81
2021/12/28 02:17:35;;;;;;;388.30;55.38;;;6.80;99.90;;;;;;5018634;28;20046;-81
2021/12/28 02:20:09;;;;;;;478.10;58.70;;;6.90;99.90;;;;;;5035413;28;20052;-81
2021/12/28 02:22:34;;;;;;;677.83;72.88;;;6.90;99.90;;;;;;5035868;28;20045;-80
2021/12/28 02:25:00;;;;;;;50.78;27.00;;;6.90;99.90;;;;;;5035647;28;20053;-81
2021/12/28 02:27:29;;;;;;;397.00;54.55;;;6.90;99.90;;;;;;5035674;28;20136;-81
2021/12/28 02:29:56;;;;;;;50.42;26.67;;;6.80;99.90;;;;;;5019262;28;20085;-81
2021/12/28 02:32:25;;;;;;;58.75;25.45;;;6.90;99.90;;;;;;5035249;28;20049;-81
2021/12/28 02:34:51;;;;;;;51.35;26.77;;;6.80;99.90;;;;;;5035445;28;20508;-82
2021/12/28 02:37:16;;;;;;;48.15;24.90;;;6.80;99.90;;;;;;5051827;28;20041;-81
2021/12/28 02:39:42;;;;;;;269.13;45.95;;;6.80;99.90;;;;;;5018912;28;20046;-81
2021/12/28 02:42:08;;;;;;;210.00;42.92;;;6.80;99.90;;;;;;5051816;28;20045;-81
2021/12/28 02:44:33;;;;;;;227.13;44.65;;;6.90;99.90;;;;;;5051967;28;20107;-81
2021/12/28 02:46:59;;;;;;;267.77;45.20;;;6.80;99.90;;;;;;5051574;28;20038;-81
2021/12/28 02:49:24;;;;;;;181.00;42.05;;;6.80;99.90;;;;;;5051708;28;20088;-81
2021/12/28 02:51:50;;;;;;;738.22;77.07;;;6.80;99.90;;;;;;5051560;28;20492;-82
2021/12/28 02:54:16;;;;;;;75.72;32.63;;;6.90;99.90;;;;;;5002148;28;20049;-81
2021/12/28 02:56:42;;;;;;;219.10;41.67;;;6.90;99.90;;;;;;5018513;28;20046;-81
2021/12/28 02:59:07;;;;;;;78.65;31.00;;;6.90;99.90;;;;;;5051715;28;20049;-82
2021/12/28 03:01:34;;;;;;;62.58;30.25;;;6.90;99.90;;;;;;5051570;28;20068;-81
2021/12/28 03:04:04;;;;;;;133.68;34.05;;;6.90;99.90;;;;;;5035304;28;20057;-81
2021/12/28 03:06:30;;;;;;;51.25;27.30;;;6.90;99.90;;;;;;5035144;28;20057;-81
2021/12/28 03:08:58;;;;;;;65.03;29.92;;;6.90;99.90;;;;;;5034829;28;20049;-81
2021/12/28 03:11:25;;;;;;;131.88;31.40;;;6.80;99.90;;;;;;5051463;28;20523;-81
2021/12/28 03:13:54;;;;;;;60.67;28.08;;;6.80;99.90;;;;;;5018599;28;20401;-81
2021/12/28 03:16:22;;;;;;;49.28;25.17;;;6.80;99.90;;;;;;5034124;28;20067;-81
2021/12/28 03:18:49;;;;;;;44.85;24.70;;;6.80;99.90;;;;;;5018098;28;20134;-81
2021/12/28 03:21:16;;;;;;;509.52;56.45;;;6.80;99.90;;;;;;5034075;28;20049;-81
2021/12/28 03:23:43;;;;;;;435.35;54.65;;;6.80;99.90;;;;;;5034390;28;20041;-81
2021/12/28 03:26:10;;;;;;;338.90;47.80;;;6.80;99.90;;;;;;5050990;28;20108;-81
2021/12/28 03:28:40;;;;;;;57.08;26.55;;;6.80;99.90;;;;;;5034230;28;20477;-81
2021/12/28 03:31:08;;;;;;;46.15;25.63;;;6.70;99.90;;;;;;5034117;28;20053;-81
2021/12/28 03:33:36;;;;;;;60.50;26.85;;;6.70;99.90;;;;;;5017653;28;20056;-81
2021/12/28 03:36:02;;;;;;;159.98;33.88;;;6.70;99.90;;;;;;5050110;28;20046;-82
2021/12/28 03:38:28;;;;;;;123.68;33.85;;;6.70;99.90;;;;;;5017453;28;20063;-81
2021/12/28 03:40:54;;;;;;;49.88;26.73;;;6.70;99.90;;;;;;5033938;28;20488;-81
2021/12/28 03:43:21;;;;;;;216.88;40.85;;;6.70;99.90;;;;;;5033841;28;20044;-81
2021/12/28 03:45:47;;;;;;;299.80;48.17;;;6.70;99.90;;;;;;5017216;28;20159;-81
2021/12/28 03:48:13;;;;;;;141.82;35.17;;;6.80;99.90;;;;;;5050718;28;20056;-81
2021/12/28 03:50:39;;;;;;;820.80;76.00;;;6.90;99.90;;;;;;5033426;28;20104;-81
2021/12/28 03:53:07;;;;;;;89.63;32.88;;;6.80;99.90;;;;;;5033793;28;20088;-81
2021/12/28 03:55:33;;;;;;;642.08;70.90;;;6.80;99.90;;;;;;5017921;28;20107;-81
2021/12/28 03:58:00;;;;;;;79.40;32.63;;;6.90;99.90;;;;;;5051252;28;20493;-81
2021/12/28 04:00:28;;;;;;;127.07;34.17;;;7.00;99.90;;;;;;5017825;28;20046;-82
2021/12/28 04:02:54;;;;;;;433.83;55.13;;;7.00;99.90;;;;;;5017524;28;20057;-82
2021/12/28 04:05:20;;;;;;;75.07;32.97;;;7.00;99.90;;;;;;5033910;28;20059;-82
2021/12/28 04:07:46;;;;;;;942.15;84.55;;;7.00;99.90;;;;;;5033332;28;20389;-81
2021/12/28 04:10:15;;;;;;;715.70;73.65;;;7.10;99.90;;;;;;5050717;28;20045;-81
2021/12/28 04:12:41;;;;;;;58.28;28.27;;;7.10;99.90;;;;;;5050571;28;20429;-81
2021/12/28 04:15:10;;;;;;;58.17;29.20;;;7.10;99.90;;;;;;5017605;28;20485;-82
2021/12/28 04:17:37;;;;;;;1025.80;94.30;;;7.00;99.90;;;;;;5033698;28;20099;-81
2021/12/28 04:20:20;;;;;;;77.85;31.08;;;7.00;99.90;;;;;;5034036;28;20103;-81
2021/12/28 04:22:46;;;;;;;253.70;43.58;;;7.00;99.90;;;;;;5033840;28;20081;-81
2021/12/28 04:25:17;;;;;;;418.85;55.10;;;7.00;99.90;;;;;;5033546;28;20096;-81
2021/12/28 04:27:43;;;;;;;159.40;35.63;;;7.00;99.90;;;;;;5035921;28;20495;-81
2021/12/28 04:30:11;;;;;;;179.20;38.15;;;7.00;99.90;;;;;;5054602;28;20037;-81
2021/12/28 04:32:37;;;;;;;861.63;81.38;;;7.10;99.90;;;;;;5054161;28;20045;-81
2021/12/28 04:35:04;;;;;;;356.10;50.53;;;7.10;99.90;;;;;;5021588;28;20060;-81
2021/12/28 04:37:29;;;;;;;1016.28;95.50;;;6.90;99.90;;;;;;5037021;28;20041;-81
2021/12/28 04:39:55;;;;;;;67.95;31.42;;;6.80;99.90;;;;;;5037669;28;20182;-81
2021/12/28 04:42:21;;;;;;;628.00;69.00;;;6.90;99.90;;;;;;5037804;28;20045;-81
2021/12/28 04:44:49;;;;;;;888.53;86.47;;;7.00;99.90;;;;;;5021032;28;20136;-81
2021/12/28 04:47:16;;;;;;;301.33;47.60;;;7.10;99.90;;;;;;5037628;28;20057;-81
2021/12/28 04:49:42;;;;;;;172.40;38.28;;;7.00;99.90;;;;;;5053549;28;20080;-81
2021/12/28 04:52:08;;;;;;;79.63;33.38;;;7.00;99.90;;;;;;5037444;28;20053;-81
2021/12/28 04:54:36;;;;;;;861.67;85.22;;;7.00;99.90;;;;;;5054461;28;20045;-81
2021/12/28 04:57:02;;;;;;;91.95;35.03;;;7.00;99.90;;;;;;5054299;28;20138;-81
2021/12/28 04:59:28;;;;;;;954.75;90.28;;;7.00;99.90;;;;;;5037104;28;20095;-81
2021/12/28 05:01:54;;;;;;;85.78;34.55;;;7.00;99.90;;;;;;5053735;28;20084;-81
2021/12/28 05:04:19;;;;;;;366.00;50.97;;;6.90;99.90;;;;;;5036915;28;20049;-81
2021/12/28 05:06:45;;;;;;;762.60;71.88;;;6.90;99.90;;;;;;5036316;28;20060;-81
2021/12/28 05:09:12;;;;;;;565.90;64.55;;;6.80;99.90;;;;;;5036981;28;20053;-81
2021/12/28 05:11:38;;;;;;;152.73;37.95;;;6.80;99.90;;;;;;5053518;28;20373;-81
2021/12/28 05:14:05;;;;;;;556.60;62.20;;;6.80;99.90;;;;;;5036954;28;20052;-81
2021/12/28 05:16:33;;;;;;;94.45;32.63;;;6.70;99.90;;;;;;5036565;28;20059;-81
2021/12/28 05:19:00;;;;;;;76.35;32.15;;;6.80;99.90;;;;;;5037280;28;20396;-82
2021/12/28 05:21:26;;;;;;;551.13;64.57;;;6.70;99.90;;;;;;5037806;28;20053;-81
2021/12/28 05:23:51;;;;;;;342.77;49.80;;;6.70;99.90;;;;;;5053666;28;20058;-82
2021/12/28 05:26:17;;;;;;;125.28;37.35;;;6.70;99.90;;;;;;5052790;28;20095;-81
2021/12/28 05:28:43;;;;;;;343.38;53.03;;;6.70;99.90;;;;;;5035554;28;20111;-82
2021/12/28 05:31:09;;;;;;;418.88;57.03;;;6.70;99.90;;;;;;5004355;28;20057;-82
2021/12/28 05:33:35;;;;;;;440.45;57.78;;;6.60;99.90;;;;;;5036290;28;20045;-82
2021/12/28 05:36:01;;;;;;;180.52;39.67;;;6.70;99.90;;;;;;5019874;28;20043;-81
2021/12/28 05:38:26;;;;;;;540.05;64.47;;;6.50;99.90;;;;;;5052689;28;20393;-81
2021/12/28 05:40:52;;;;;;;323.90;47.88;;;6.50;99.90;;;;;;5020380;28;20056;-81
2021/12/28 05:43:18;;;;;;;305.25;46.95;;;6.60;99.90;;;;;;5036488;28;20080;-82
2021/12/28 05:45:44;;;;;;;93.20;30.58;;;6.60;99.90;;;;;;5036714;28;20365;-83
2021/12/28 05:48:10;;;;;;;112.85;35.08;;;6.50;99.90;;;;;;5036479;28;20057;-81
2021/12/28 05:50:37;;;;;;;74.45;30.23;;;6.40;99.90;;;;;;5036040;28;20515;-81
2021/12/28 05:53:04;;;;;;;94.72;32.78;;;6.40;99.90;;;;;;5052686;28;20057;-81
2021/12/28 05:55:30;;;;;;;147.75;35.90;;;6.40;99.90;;;;;;5036362;28;20037;-81
2021/12/28 05:57:56;;;;;;;153.85;33.90;;;6.50;99.90;;;;;;5019739;28;20053;-81
2021/12/28 06:00:22;;;;;;;172.32;34.00;;;6.40;99.90;;;;;;5036423;28;20128;-82
2021/12/28 06:02:48;;;;;;;391.42;47.63;;;6.40;99.90;;;;;;5036129;28;20041;-82
2021/12/28 06:05:14;;;;;;;319.88;41.63;;;6.50;99.90;;;;;;5020000;28;20055;-81
2021/12/28 06:07:40;;;;;;;221.98;37.15;;;6.50;99.90;;;;;;5051733;28;20045;-81
2021/12/28 06:10:07;;;;;;;102.43;29.48;;;6.60;99.90;;;;;;5051773;28;20366;-82
2021/12/28 06:12:33;;;;;;;67.82;28.52;;;6.50;99.90;;;;;;5019466;28;20369;-81
2021/12/28 06:14:58;;;;;;;71.35;29.08;;;6.60;99.90;;;;;;5035064;28;20045;-81
2021/12/28 06:17:24;;;;;;;68.63;28.13;;;6.50;99.90;;;;;;5035406;28;20045;-82
2021/12/28 06:19:50;;;;;;;125.63;31.70;;;6.60;99.90;;;;;;5035189;28;20050;-82
2021/12/28 06:22:16;;;;;;;287.98;43.33;;;6.70;99.90;;;;;;5051418;28;20139;-81
2021/12/28 06:24:42;;;;;;;346.60;46.55;;;6.70;99.90;;;;;;5051616;28;20096;-82
2021/12/28 06:27:08;;;;;;;90.40;30.52;;;6.60;99.90;;;;;;5051733;28;20049;-82
2021/12/28 06:29:34;;;;;;;100.55;27.73;;;6.60;99.90;;;;;;5035032;28;20061;-79
2021/12/28 06:32:00;;;;;;;66.30;26.55;;;6.60;99.90;;;;;;5018861;28;20049;-82
2021/12/28 06:34:26;;;;;;;180.82;36.92;;;6.60;99.90;;;;;;5051451;28;20053;-82
2021/12/28 06:36:51;;;;;;;171.38;37.25;;;6.60;99.90;;;;;;5050943;28;20124;-82
2021/12/28 06:39:17;;;;;;;119.95;31.30;;;6.60;99.90;;;;;;5034451;28;20045;-82
2021/12/28 06:41:43;;;;;;;149.25;35.53;;;6.60;99.90;;;;;;5034334;28;20049;-82
2021/12/28 06:44:10;;;;;;;93.55;27.85;;;6.60;99.90;;;;;;5018325;28;20132;-82
2021/12/28 06:46:38;;;;;;;191.00;35.63;;;6.60;99.90;;;;;;5034530;28;20545;-82
2021/12/28 06:49:04;;;;;;;87.43;28.48;;;6.60;99.90;;;;;;5035065;28;20142;-80
2021/12/28 06:51:30;;;;;;;195.65;37.13;;;6.70;99.90;;;;;;5034838;28;20053;-81
2021/12/28 06:53:56;;;;;;;68.05;25.70;;;6.70;99.90;;;;;;5034454;28;20558;-81
2021/12/28 06:56:22;;;;;;;207.98;38.08;;;6.70;99.90;;;;;;5034885;28;20049;-81
2021/12/28 06:58:48;;;;;;;102.97;29.48;;;6.70;99.90;;;;;;5018861;28;20049;-81
2021/12/28 07:01:15;;;;;;;98.38;29.77;;;6.70;99.90;;;;;;5034546;28;20064;-81
2021/12/28 07:03:40;;;;;;;125.95;31.15;;;6.60;99.90;;;;;;5002385;28;20052;-81
2021/12/28 07:06:10;;;;;;;175.20;35.25;;;6.70;99.90;;;;;;5034824;28;20049;-81
2021/12/28 07:08:36;;;;;;;117.15;30.80;;;6.70;99.90;;;;;;5034137;28;20041;-81
2021/12/28 07:11:03;;;;;;;88.78;29.65;;;6.70;99.90;;;;;;5034792;28;20041;-80
2021/12/28 07:13:29;;;;;;;134.90;31.38;;;6.70;99.90;;;;;;5034395;28;20098;-81
2021/12/28 07:15:55;;;;;;;78.82;28.27;;;6.70;99.90;;;;;;5034333;28;20045;-81
2021/12/28 07:18:21;;;;;;;99.32;29.00;;;6.70;99.90;;;;;;5034368;28;20055;-81
2021/12/28 07:20:48;;;;;;;63.35;25.50;;;6.70;99.90;;;;;;5050987;28;20549;-81
2021/12/28 07:23:14;;;;;;;124.18;33.33;;;6.70;99.90;;;;;;5034479;28;20484;-81
2021/12/28 07:25:40;;;;;;;102.57;29.88;;;6.70;99.90;;;;;;5051273;28;20053;-81
2021/12/28 07:28:06;;;;;;;124.75;29.75;;;6.60;99.90;;;;;;5018115;28;20119;-81
2021/12/28 07:30:31;;;;;;;154.45;34.20;;;6.70;99.90;;;;;;5017811;28;20052;-81
2021/12/28 07:32:57;;;;;;;129.95;34.83;;;6.70;99.90;;;;;;5017556;28;20052;-81
2021/12/28 07:35:23;;;;;;;127.30;32.83;;;6.70;99.90;;;;;;5033849;28;20050;-81
2021/12/28 07:37:49;;;;;;;103.60;30.00;;;6.80;99.90;;;;;;5033422;28;20099;-79
2021/12/28 07:40:14;;;;;;;69.93;26.35;;;6.80;99.90;;;;;;5050855;28;20476;-82
2021/12/28 07:42:40;;;;;;;87.80;27.98;;;6.80;99.90;;;;;;5034235;28;20473;-82
2021/12/28 07:45:09;;;;;;;190.43;35.28;;;6.80;99.90;;;;;;5034035;28;20056;-82
2021/12/28 07:47:35;;;;;;;87.72;28.45;;;6.80;99.90;;;;;;5033824;28;20041;-82
2021/12/28 07:50:02;;;;;;;55.17;22.88;;;6.90;99.90;;;;;;5033918;28;20056;-82
2021/12/28 07:52:28;;;;;;;118.72;34.47;;;6.90;99.90;;;;;;5033714;28;20072;-83
2021/12/28 07:54:54;;;;;;;105.10;29.17;;;7.00;99.90;;;;;;5033801;28;20136;-81
2021/12/28 07:57:19;;;;;;;54.10;23.80;;;6.90;99.90;;;;;;5033726;28;20095;-81
2021/12/28 07:59:45;;;;;;;78.40;26.30;;;6.90;99.90;;;;;;5050213;28;20072;-81
2021/12/28 08:02:11;;;;;;;94.00;30.20;;;6.80;99.90;;;;;;5032779;28;20099;-81
2021/12/28 08:04:36;;;;;;;50.80;22.58;;;6.90;99.90;;;;;;5050040;28;20103;-81
2021/12/28 08:07:02;;;;;;;89.28;24.83;;;6.80;99.90;;;;;;5049643;28;20076;-81
2021/12/28 08:09:28;;;;;;;51.45;22.73;;;6.90;99.90;;;;;;5050004;28;20473;-82
2021/12/28 08:11:54;;;;;;;71.28;24.00;;;6.90;99.90;;;;;;5050383;28;20115;-81
2021/12/28 08:14:19;;;;;;;48.72;20.58;;;6.90;99.90;;;;;;5050923;28;20063;-81
2021/12/28 08:16:46;;;;;;;98.30;25.05;;;6.90;99.90;;;;;;5032885;28;20037;-82
2021/12/28 08:19:11;;;;;;;45.65;20.48;;;6.90;99.90;;;;;;5033104;28;20049;-82
2021/12/28 08:21:37;;;;;;;45.08;19.40;;;6.80;99.90;;;;;;5033375;28;20493;-82
2021/12/28 08:24:04;;;;;;;58.47;20.52;;;6.70;99.90;;;;;;5017432;28;20060;-81
2021/12/28 08:26:30;;;;;;;93.20;24.52;;;6.70;99.90;;;;;;5033470;28;20405;-82
2021/12/28 08:28:55;;;;;;;85.50;21.95;;;6.80;99.90;;;;;;5049793;28;20060;-82
2021/12/28 08:31:21;;;;;;;59.97;21.25;;;6.80;99.90;;;;;;5033104;28;20042;-81
2021/12/28 08:33:47;;;;;;;103.38;25.92;;;6.80;99.90;;;;;;5033141;28;20088;-81
2021/12/28 08:36:13;;;;;;;45.92;18.60;;;6.90;99.90;;;;;;5016504;28;20041;-81
2021/12/28 08:38:39;;;;;;;54.50;20.35;;;6.90;99.90;;;;;;5049287;28;20132;-82
2021/12/28 08:41:05;;;;;;;97.65;25.63;;;7.00;99.90;;;;;;5016539;28;20128;-81
2021/12/28 08:43:32;;;;;;;55.80;19.67;;;7.20;99.90;;;;;;5033131;28;20382;-82
2021/12/28 08:45:57;;;;;;;60.42;20.58;;;7.10;99.90;;;;;;5027791;28;20073;-83
2021/12/28 08:48:23;;;;;;;63.95;20.98;;;7.10;99.90;;;;;;5019425;28;20543;-83
2021/12/28 08:50:49;;;;;;;69.15;21.33;;;7.10;99.90;;;;;;5032893;28;20045;-80
2021/12/28 08:53:16;;;;;;;63.95;18.73;;;7.10;99.90;;;;;;5015987;28;20068;-80
2021/12/28 08:55:42;;;;;;;62.08;20.45;;;7.10;99.90;;;;;;5033571;28;20052;-83
2021/12/28 08:58:08;;;;;;;51.33;20.48;;;7.10;99.90;;;;;;5016354;28;20057;-80
2021/12/28 09:00:36;;;;;;;73.03;21.00;;;7.30;99.90;;;;;;5041445;28;20057;-79
2021/12/28 09:03:02;;;;;;;79.32;19.63;;;7.30;99.90;;;;;;5035227;28;20076;-81
2021/12/28 09:05:29;;;;;;;42.88;17.58;;;7.40;99.90;;;;;;5023133;28;20503;-83
2021/12/28 09:07:56;;;;;;;41.17;16.58;;;7.40;99.90;;;;;;5043754;28;20050;-78
2021/12/28 09:10:25;;;;;;;44.50;16.83;;;7.40;99.90;;;;;;5040837;28;20047;-79
2021/12/28 09:12:51;;;;;;;62.08;17.55;;;7.50;99.90;;;;;;5032795;28;20061;-78
2021/12/28 09:15:16;;;;;;;46.33;15.25;;;7.50;99.90;;;;;;5035697;28;20052;-79
2021/12/28 09:17:42;;;;;;;49.92;16.42;;;7.50;99.90;;;;;;5035537;28;20049;-77
2021/12/28 09:20:12;;;;;;;48.33;17.23;;;7.60;99.90;;;;;;5069038;28;20095;-78
2021/12/28 09:22:38;;;;;;;39.20;14.07;;;7.60;99.90;;;;;;5035137;28;20111;-79
2021/12/28 09:25:05;;;;;;;39.13;14.68;;;7.70;99.90;;;;;;5035968;28;20049;-79
2021/12/28 09:27:31;;;;;;;46.28;16.25;;;7.70;99.90;;;;;;5035247;28;20064;-78
2021/12/28 09:30:00;;;;;;;47.80;16.40;;;7.80;99.90;;;;;;5011516;28;20084;-79
2021/12/28 09:32:26;;;;;;;46.42;14.52;;;7.70;99.90;;;;;;5034698;28;20037;-80
2021/12/28 09:34:54;;;;;;;57.30;16.98;;;7.70;99.90;;;;;;5035049;28;20053;-78
2021/12/28 09:37:19;;;;;;;50.35;15.50;;;7.80;99.90;;;;;;5035688;28;20049;-79
2021/12/28 09:39:46;;;;;;;37.78;14.00;;;7.80;99.90;;;;;;5022851;28;20057;-79
2021/12/28 09:42:12;;;;;;;36.97;14.00;;;7.90;99.90;;;;;;5034614;28;20488;-79
2021/12/28 09:44:38;;;;;;;52.88;16.45;;;7.90;99.90;;;;;;5034572;28;20080;-77
2021/12/28 09:47:05;;;;;;;31.02;12.30;;;7.90;99.90;;;;;;5017502;28;20045;-76
2021/12/28 09:49:31;;;;;;;64.78;16.35;;;8.00;99.90;;;;;;5035267;28;20045;-77
2021/12/28 09:51:59;;;;;;;46.78;15.65;;;8.10;99.90;;;;;;5035136;28;20064;-76
2021/12/28 09:54:28;;;;;;;50.03;16.05;;;8.10;99.90;;;;;;5035272;28;20065;-78
2021/12/28 09:56:56;;;;;;;39.20;13.90;;;8.10;99.90;;;;;;5053039;28;20421;-76
2021/12/28 09:59:23;;;;;;;36.15;12.63;;;8.00;99.90;;;;;;5034658;28;20500;-77
2021/12/28 10:01:49;;;;;;;32.28;12.25;;;7.90;99.90;;;;;;5034914;28;20062;-79
2021/12/28 10:04:16;;;;;;;27.67;10.55;;;7.90;99.90;;;;;;5028716;28;20128;-80
2021/12/28 10:06:43;;;;;;;39.42;13.07;;;7.90;99.90;;;;;;5015680;28;20477;-80
2021/12/28 10:09:18;;;;;;;28.98;11.25;;;7.90;99.90;;;;;;5034010;28;20053;-76
2021/12/28 10:11:54;;;;;;;25.58;10.35;;;7.90;99.90;;;;;;5035515;28;20060;-79
2021/12/28 10:14:26;;;;;;;49.70;15.07;;;7.80;99.90;;;;;;5020284;28;20053;-78
2021/12/28 10:16:58;;;;;;;34.65;11.70;;;7.80;99.90;;;;;;5034684;28;20107;-77
2021/12/28 10:19:38;;;;;;;49.95;14.07;;;7.80;99.90;;;;;;5018634;28;20496;-77
2021/12/28 10:22:20;;;;;;;25.10;9.75;;;7.90;99.90;;;;;;5037199;28;20092;-77
2021/12/28 10:24:46;;;;;;;38.33;11.25;;;7.80;99.90;;;;;;5020199;28;20400;-78
2021/12/28 10:27:14;;;;;;;26.52;9.85;;;7.80;99.90;;;;;;5035765;28;20045;-76
2021/12/28 10:29:40;;;;;;;44.13;14.13;;;7.80;99.90;;;;;;5018130;28;20519;-78
2021/12/28 10:32:25;;;;;;;33.47;12.00;;;7.90;99.90;;;;;;5051431;28;20045;-78
2021/12/28 10:34:58;;;;;;;25.42;9.60;;;7.90;99.90;;;;;;5047285;28;20045;-78
2021/12/28 10:37:30;;;;;;;33.47;11.52;;;7.80;99.90;;;;;;5047146;28;20060;-77
2021/12/28 10:39:59;;;;;;;47.00;11.82;;;7.90;99.90;;;;;;5062028;28;20053;-81
2021/12/28 10:42:49;;;;;;;39.30;11.10;;;7.90;99.90;;;;;;5031934;28;20501;-82
2021/12/28 10:45:19;;;;;;;22.73;9.60;;;7.90;99.90;;;;;;5032962;28;20045;-79
2021/12/28 10:47:45;;;;;;;47.28;11.70;;;7.80;99.90;;;;;;5032396;28;20045;-77
2021/12/28 10:50:20;;;;;;;35.22;9.52;;;7.80;99.90;;;;;;5016480;28;20042;-76
2021/12/28 10:52:51;;;;;;;57.10;13.55;;;7.90;99.90;;;;;;5019817;28;20493;-77
2021/12/28 10:55:26;;;;;;;29.02;9.00;;;8.00;99.90;;;;;;5020557;28;20053;-76
2021/12/28 10:57:52;;;;;;;34.13;10.05;;;7.90;99.90;;;;;;5014626;28;20046;-77
2021/12/28 11:00:43;;;;;;;53.75;12.98;;;7.90;99.90;;;;;;4998491;28;20133;-77
2021/12/28 11:03:15;;;;;;;37.47;10.65;;;8.00;99.90;;;;;;5014536;28;20053;-77
2021/12/28 11:05:46;;;;;;;29.38;8.80;;;8.00;99.90;;;;;;5023545;28;20053;-76
2021/12/28 11:08:12;;;;;;;37.70;11.52;;;8.00;99.90;;;;;;5032928;28;20053;-75
2021/12/28 11:10:47;;;;;;;41.67;12.43;;;8.00;99.90;;;;;;5015536;28;20049;-76
2021/12/28 11:13:14;;;;;;;33.67;10.27;;;7.90;99.90;;;;;;5033317;28;20505;-73
2021/12/28 11:15:45;;;;;;;26.30;10.27;;;7.90;99.90;;;;;;5032782;28;20551;-75
2021/12/28 11:18:18;;;;;;;37.03;11.18;;;7.90;99.90;;;;;;5024972;28;20078;-76
2021/12/28 11:20:45;;;;;;;34.30;11.77;;;7.90;99.90;;;;;;5046525;28;20521;-76
2021/12/28 11:23:13;;;;;;;44.88;13.82;;;8.10;99.90;;;;;;5032977;28;20071;-76
2021/12/28 11:25:39;;;;;;;44.78;13.73;;;8.20;99.90;;;;;;5033561;28;20409;-76
2021/12/28 11:28:32;;;;;;;22.90;9.52;;;8.10;99.90;;;;;;5017008;28;20052;-76
2021/12/28 11:31:18;;;;;;;28.95;11.10;;;8.20;99.90;;;;;;5029133;28;20412;-75
2021/12/28 11:33:53;;;;;;;19.80;10.38;;;8.20;99.90;;;;;;5013630;28;20385;-81
2021/12/28 11:36:24;;;;;;;32.85;11.77;;;8.20;99.90;;;;;;5063271;28;20045;-79
2021/12/28 11:38:54;;;;;;;20.70;9.63;;;8.00;99.90;;;;;;5029471;28;20049;-76
2021/12/28 11:41:20;;;;;;;62.67;16.25;;;8.00;99.90;;;;;;5012160;28;20440;-78
2021/12/28 11:43:47;;;;;;;22.50;10.43;;;8.10;99.90;;;;;;5011305;28;20052;-76
2021/12/28 11:46:13;;;;;;;33.33;10.95;;;8.10;99.90;;;;;;4996563;28;20073;-73
2021/12/28 11:48:40;;;;;;;30.70;11.85;;;8.20;99.90;;;;;;5030051;28;20049;-74
2021/12/28 11:51:06;;;;;;;33.67;13.05;;;8.20;99.90;;;;;;5029810;28;20056;-75
2021/12/28 11:53:36;;;;;;;39.00;14.77;;;8.10;99.90;;;;;;5029226;28;20050;-75
2021/12/28 11:56:04;;;;;;;32.10;12.55;;;8.20;99.90;;;;;;5014266;28;20042;-75
2021/12/28 11:58:52;;;;;;;52.72;15.85;;;8.20;99.90;;;;;;5013495;28;20053;-75
2021/12/28 12:01:37;;;;;;;40.53;16.27;;;8.30;99.90;;;;;;5013343;28;20501;-74
2021/12/28 12:04:04;;;;;;;48.07;14.77;;;8.50;99.90;;;;;;5013292;28;20053;-74
2021/12/28 12:07:14;;;;;;;35.85;14.60;;;8.50;99.90;;;;;;5013115;28;20528;-74
2021/12/28 12:09:55;;;;;;;29.17;12.05;;;8.50;99.90;;;;;;4975980;28;20081;-75
2021/12/28 12:12:22;;;;;;;26.00;12.40;;;8.50;99.90;;;;;;5011456;28;20061;-74
2021/12/28 12:14:51;;;;;;;39.92;15.93;;;8.50;99.90;;;;;;5013492;28;20077;-75
2021/12/28 12:17:28;;;;;;;40.05;14.75;;;8.50;99.90;;;;;;5012965;28;20065;-74
2021/12/28 12:19:56;;;;;;;31.48;14.73;;;8.50;99.90;;;;;;5012950;28;20189;-74
2021/12/28 12:22:37;;;;;;;29.60;13.38;;;8.40;99.90;;;;;;5012976;28;20501;-74
2021/12/28 12:25:42;;;;;;;35.38;13.82;;;8.40;99.90;;;;;;5013157;28;20079;-71
2021/12/28 12:28:09;;;;;;;43.20;16.33;;;8.50;99.90;;;;;;5013822;28;20041;-77
2021/12/28 12:30:54;;;;;;;39.53;14.75;;;8.50;99.90;;;;;;4996758;28;20041;-76
2021/12/28 12:33:20;;;;;;;57.95;17.33;;;8.50;99.90;;;;;;5013289;28;20367;-76
2021/12/28 12:35:49;;;;;;;41.17;16.95;;;8.50;99.90;;;;;;5012989;28;20124;-75
2021/12/28 12:38:15;;;;;;;40.08;16.38;;;8.60;99.90;;;;;;5012783;28;20493;-76